Time;durP1;ratioP1;P1;durP2;ratioP2;P2;SDS_P1;SDS_P2;PMS_P1;PMS_P2;Temp;Humidity;BMP_temperature;BMP_pressure;BME280_temperature;BME280_humidity;BME280_pressure;Samples;Min_cycle;Max_cycle;Signal;HPM_P1;HPM_P2
2023/07/29 00:01:59;;;;;;;13.07;10.30;;;18.70;99.90;;;;;;5033900;28;20753;-65
2023/07/29 00:04:27;;;;;;;11.10;9.93;;;18.70;99.90;;;;;;5032658;28;20222;-64
2023/07/29 00:06:55;;;;;;;11.63;10.07;;;18.70;99.90;;;;;;5046825;28;20583;-64
2023/07/29 00:09:25;;;;;;;13.25;10.52;;;18.70;99.90;;;;;;5051748;28;20205;-64
2023/07/29 00:11:53;;;;;;;14.02;11.00;;;18.70;99.90;;;;;;5039465;28;20256;-63
2023/07/29 00:14:21;;;;;;;14.43;10.88;;;18.70;99.90;;;;;;5031555;28;20252;-64
2023/07/29 00:16:49;;;;;;;11.57;10.38;;;18.80;99.90;;;;;;5046014;28;20205;-65
2023/07/29 00:19:17;;;;;;;12.23;10.18;;;18.70;99.90;;;;;;5038205;28;20234;-65
2023/07/29 00:21:44;;;;;;;11.23;10.23;;;18.80;99.90;;;;;;5051471;28;20198;-65
2023/07/29 00:24:12;;;;;;;18.55;10.70;;;18.80;99.90;;;;;;5051428;28;20205;-65
2023/07/29 00:26:42;;;;;;;14.73;10.45;;;18.80;99.90;;;;;;5051062;28;20251;-65
2023/07/29 00:29:09;;;;;;;11.38;9.63;;;18.80;99.90;;;;;;5051538;28;20288;-63
2023/07/29 00:31:37;;;;;;;10.52;9.10;;;18.80;99.90;;;;;;5051521;28;20224;-65
2023/07/29 00:34:05;;;;;;;15.00;10.52;;;18.80;99.90;;;;;;5051236;28;20233;-65
2023/07/29 00:36:33;;;;;;;10.68;9.55;;;18.80;99.90;;;;;;5051063;28;20244;-65
2023/07/29 00:39:02;;;;;;;16.77;10.00;;;18.80;99.90;;;;;;5051195;28;20224;-63
2023/07/29 00:41:30;;;;;;;18.90;10.45;;;18.80;99.90;;;;;;5025134;28;20908;-65
2023/07/29 00:43:59;;;;;;;14.45;9.85;;;18.80;99.90;;;;;;5038771;28;20669;-65
2023/07/29 00:46:27;;;;;;;12.45;9.32;;;18.70;99.90;;;;;;5051089;28;20255;-65
2023/07/29 00:48:55;;;;;;;13.98;8.75;;;18.70;99.90;;;;;;5051229;28;20202;-65
2023/07/29 00:51:22;;;;;;;18.67;8.40;;;18.70;99.90;;;;;;5051147;28;20644;-64
2023/07/29 00:53:50;;;;;;;12.70;8.57;;;18.70;99.90;;;;;;5051140;28;20202;-62
2023/07/29 00:56:18;;;;;;;10.65;9.23;;;18.70;99.90;;;;;;5051097;28;20320;-63
2023/07/29 00:58:46;;;;;;;13.68;9.30;;;18.70;99.90;;;;;;5051176;28;20205;-65
2023/07/29 01:01:15;;;;;;;10.40;8.82;;;18.70;99.90;;;;;;5043147;28;20651;-65
2023/07/29 01:03:45;;;;;;;11.13;7.82;;;18.70;99.90;;;;;;5032161;28;20202;-65
2023/07/29 01:06:14;;;;;;;15.07;8.27;;;18.70;99.90;;;;;;5040206;28;20271;-65
2023/07/29 01:08:47;;;;;;;12.20;7.45;;;18.80;99.90;;;;;;5051114;28;20201;-64
2023/07/29 01:11:22;;;;;;;10.57;7.82;;;18.80;99.90;;;;;;5051198;28;20243;-65
2023/07/29 01:13:54;;;;;;;9.55;6.90;;;18.80;99.90;;;;;;5051204;28;20632;-62
2023/07/29 01:16:26;;;;;;;9.73;7.40;;;18.80;99.90;;;;;;5053962;28;20221;-64
2023/07/29 01:18:55;;;;;;;8.13;7.38;;;18.70;99.90;;;;;;5043002;28;20213;-65
2023/07/29 01:21:23;;;;;;;10.13;6.75;;;18.70;99.90;;;;;;5053482;28;20205;-65
2023/07/29 01:23:54;;;;;;;7.55;6.85;;;18.70;99.90;;;;;;5043309;28;20215;-64
2023/07/29 01:26:22;;;;;;;11.25;6.65;;;18.70;99.90;;;;;;5033329;28;20304;-65
2023/07/29 01:28:50;;;;;;;9.38;6.35;;;18.70;99.90;;;;;;5049262;28;20237;-65
2023/07/29 01:31:21;;;;;;;8.65;5.28;;;18.70;99.90;;;;;;5054322;28;20244;-65
2023/07/29 01:33:53;;;;;;;9.77;6.30;;;18.70;99.90;;;;;;5054302;28;20201;-65
2023/07/29 01:36:23;;;;;;;8.15;4.63;;;18.70;99.90;;;;;;5054009;28;20693;-65
2023/07/29 01:38:51;;;;;;;8.60;5.78;;;18.70;99.90;;;;;;5051258;28;20198;-65
2023/07/29 01:41:20;;;;;;;8.40;5.18;;;18.70;99.90;;;;;;5028387;28;20210;-65
2023/07/29 01:43:49;;;;;;;5.68;4.80;;;18.70;99.90;;;;;;5040416;28;20201;-65
2023/07/29 01:46:16;;;;;;;7.82;4.50;;;18.70;99.90;;;;;;5040807;28;20300;-64
2023/07/29 01:48:44;;;;;;;5.05;4.57;;;18.80;99.90;;;;;;5035123;28;20202;-65
2023/07/29 01:51:12;;;;;;;6.63;4.35;;;18.70;99.90;;;;;;5051972;28;20652;-63
2023/07/29 01:53:40;;;;;;;3.90;3.47;;;18.70;99.90;;;;;;5054039;28;20201;-63
2023/07/29 01:56:08;;;;;;;9.05;4.63;;;18.70;99.90;;;;;;5051824;28;20229;-63
2023/07/29 01:58:38;;;;;;;8.65;3.90;;;18.80;99.90;;;;;;5037299;28;20678;-64
2023/07/29 02:01:06;;;;;;;6.82;3.90;;;18.80;99.90;;;;;;5035606;28;20275;-64
2023/07/29 02:03:34;;;;;;;4.47;3.58;;;18.80;99.90;;;;;;5038381;28;20661;-63
2023/07/29 02:06:02;;;;;;;6.05;3.65;;;18.80;99.90;;;;;;5053566;28;20744;-64
2023/07/29 02:08:29;;;;;;;5.85;3.72;;;18.80;99.90;;;;;;5053769;28;20252;-64
2023/07/29 02:10:57;;;;;;;3.92;3.60;;;18.80;99.90;;;;;;5053792;28;20651;-64
2023/07/29 02:13:25;;;;;;;4.18;3.47;;;18.80;99.90;;;;;;5053705;28;20221;-63
2023/07/29 02:15:54;;;;;;;5.75;3.88;;;18.80;99.90;;;;;;5052876;28;20337;-64
2023/07/29 02:18:22;;;;;;;9.65;3.95;;;18.80;99.90;;;;;;5046007;28;20277;-64
2023/07/29 02:20:50;;;;;;;4.38;4.05;;;18.80;99.90;;;;;;5048524;28;20237;-64
2023/07/29 02:23:18;;;;;;;5.72;3.92;;;18.80;99.90;;;;;;5053147;28;20201;-64
2023/07/29 02:25:46;;;;;;;4.22;3.72;;;18.80;99.90;;;;;;5053114;28;20301;-64
2023/07/29 02:28:14;;;;;;;5.00;4.20;;;18.80;99.90;;;;;;5053310;28;20632;-62
2023/07/29 02:30:43;;;;;;;7.47;4.10;;;18.90;99.90;;;;;;5053428;28;20662;-61
2023/07/29 02:33:13;;;;;;;8.00;4.90;;;18.90;99.90;;;;;;5053320;28;20213;-63
2023/07/29 02:35:41;;;;;;;7.80;4.95;;;18.90;99.90;;;;;;5052973;28;20629;-61
2023/07/29 02:38:09;;;;;;;9.55;5.57;;;18.90;99.90;;;;;;5053576;28;20202;-61
2023/07/29 02:40:37;;;;;;;14.88;5.82;;;18.90;99.90;;;;;;5053563;28;20289;-65
2023/07/29 02:43:04;;;;;;;8.10;6.18;;;18.80;99.90;;;;;;5053234;28;20641;-64
2023/07/29 02:45:32;;;;;;;12.65;6.20;;;18.80;99.90;;;;;;5074422;22;20255;-61
2023/07/29 02:48:01;;;;;;;8.30;6.22;;;18.70;99.90;;;;;;5085212;28;20287;-62
2023/07/29 02:50:30;;;;;;;8.35;6.88;;;18.70;99.90;;;;;;5084935;28;20200;-62
2023/07/29 02:52:58;;;;;;;11.35;6.68;;;18.70;99.90;;;;;;5077455;28;20315;-63
2023/07/29 02:55:26;;;;;;;10.40;6.95;;;18.70;99.90;;;;;;5074491;28;20308;-64
2023/07/29 02:57:54;;;;;;;10.98;7.57;;;18.70;99.90;;;;;;5073130;28;20280;-62
2023/07/29 03:00:21;;;;;;;11.57;9.13;;;18.70;99.90;;;;;;5072864;28;20643;-62
2023/07/29 03:02:50;;;;;;;12.13;8.77;;;18.70;99.90;;;;;;5081946;28;20644;-62
2023/07/29 03:05:19;;;;;;;11.02;10.02;;;18.70;99.90;;;;;;5074591;28;20699;-62
2023/07/29 03:07:48;;;;;;;13.35;10.13;;;18.70;99.90;;;;;;5086831;28;20221;-63
2023/07/29 03:10:16;;;;;;;10.98;9.63;;;18.70;99.90;;;;;;5083103;28;20279;-61
2023/07/29 03:12:43;;;;;;;14.73;9.80;;;18.60;99.90;;;;;;5078538;28;20223;-62
2023/07/29 03:15:12;;;;;;;13.77;9.82;;;18.60;99.90;;;;;;5073426;28;20311;-61
2023/07/29 03:17:40;;;;;;;12.05;10.18;;;18.60;99.90;;;;;;5087680;28;20298;-61
2023/07/29 03:20:09;;;;;;;11.40;10.30;;;18.60;99.90;;;;;;5081891;28;20200;-62
2023/07/29 03:22:36;;;;;;;11.63;9.30;;;18.50;99.90;;;;;;5079572;28;20219;-62
2023/07/29 03:25:07;;;;;;;10.43;9.48;;;18.50;99.90;;;;;;5072485;28;20283;-61
2023/07/29 03:27:36;;;;;;;14.00;9.02;;;18.50;99.90;;;;;;5072208;28;20656;-64
2023/07/29 03:30:05;;;;;;;11.25;7.95;;;18.50;99.90;;;;;;5071605;28;20216;-61
2023/07/29 03:32:33;;;;;;;8.85;8.05;;;18.50;99.90;;;;;;5072331;28;20201;-61
2023/07/29 03:35:01;;;;;;;10.07;8.32;;;18.50;99.90;;;;;;5088723;28;20223;-61
2023/07/29 03:37:29;;;;;;;8.10;7.40;;;18.50;99.90;;;;;;5087790;28;20731;-61
2023/07/29 03:39:57;;;;;;;9.63;8.35;;;18.50;99.90;;;;;;5079744;28;20200;-62
2023/07/29 03:42:26;;;;;;;12.93;8.20;;;18.50;99.90;;;;;;5080734;28;20641;-62
2023/07/29 03:44:54;;;;;;;14.43;7.80;;;18.50;99.90;;;;;;5071914;28;20271;-63
2023/07/29 03:47:21;;;;;;;7.13;6.50;;;18.50;99.90;;;;;;5091221;28;20269;-64
2023/07/29 03:49:49;;;;;;;9.85;7.38;;;18.50;99.90;;;;;;5085942;28;20212;-60
2023/07/29 03:52:17;;;;;;;13.25;7.05;;;18.50;99.90;;;;;;5082474;28;20192;-62
2023/07/29 03:54:45;;;;;;;8.18;7.28;;;18.40;99.90;;;;;;5077877;28;20225;-62
2023/07/29 03:57:13;;;;;;;10.93;7.03;;;18.50;99.90;;;;;;5071821;28;20252;-62
2023/07/29 03:59:42;;;;;;;8.50;7.05;;;18.40;99.90;;;;;;5071678;28;20734;-62
2023/07/29 04:02:10;;;;;;;16.20;7.20;;;18.40;99.90;;;;;;5071760;28;20586;-62
2023/07/29 04:04:38;;;;;;;12.77;6.85;;;18.40;99.90;;;;;;5084870;28;20196;-63
2023/07/29 04:07:06;;;;;;;10.98;6.88;;;18.40;99.90;;;;;;5074980;28;20739;-64
2023/07/29 04:09:34;;;;;;;10.68;6.03;;;18.40;99.90;;;;;;5091878;28;20209;-64
2023/07/29 04:12:02;;;;;;;9.48;6.25;;;18.40;99.90;;;;;;5083770;28;20216;-65
2023/07/29 04:14:30;;;;;;;8.68;5.82;;;18.40;99.90;;;;;;5071740;28;20236;-64
2023/07/29 04:17:00;;;;;;;9.57;6.20;;;18.40;99.90;;;;;;5087362;28;20301;-61
2023/07/29 04:19:28;;;;;;;13.27;5.85;;;18.40;99.90;;;;;;5071611;28;20233;-62
2023/07/29 04:21:56;;;;;;;7.22;5.63;;;18.40;99.90;;;;;;5079065;28;20216;-62
2023/07/29 04:24:23;;;;;;;8.38;5.28;;;18.40;99.90;;;;;;5080792;28;20296;-62
2023/07/29 04:26:51;;;;;;;5.28;4.78;;;18.40;99.90;;;;;;5071467;28;20224;-62
2023/07/29 04:29:19;;;;;;;5.85;4.80;;;18.30;99.90;;;;;;5073873;28;20208;-62
2023/07/29 04:31:47;;;;;;;5.70;4.57;;;18.30;99.90;;;;;;5091470;28;20204;-66
2023/07/29 04:34:16;;;;;;;8.75;4.75;;;18.30;99.90;;;;;;5091916;28;20249;-63
2023/07/29 04:36:44;;;;;;;9.82;4.53;;;18.40;99.90;;;;;;5075456;28;20271;-62
2023/07/29 04:39:12;;;;;;;5.25;4.80;;;18.30;99.90;;;;;;5072530;28;20735;-62
2023/07/29 04:41:40;;;;;;;8.18;4.97;;;18.30;99.90;;;;;;5076889;28;20236;-62
2023/07/29 04:44:08;;;;;;;9.75;4.53;;;18.30;99.90;;;;;;5091630;28;20189;-61
2023/07/29 04:46:37;;;;;;;4.93;4.50;;;18.30;99.90;;;;;;5091375;28;20281;-62
2023/07/29 04:49:05;;;;;;;7.65;4.93;;;18.30;99.90;;;;;;5092975;28;20192;-62
2023/07/29 04:51:34;;;;;;;7.32;4.47;;;18.30;99.90;;;;;;5096036;28;20216;-61
2023/07/29 04:54:02;;;;;;;6.45;4.30;;;18.30;99.90;;;;;;5087376;28;20231;-61
2023/07/29 04:56:30;;;;;;;8.48;5.03;;;18.30;99.90;;;;;;5075174;28;20261;-62
2023/07/29 04:58:58;;;;;;;6.25;4.35;;;18.30;99.90;;;;;;5075058;28;20292;-62
2023/07/29 05:01:26;;;;;;;5.85;4.65;;;18.30;99.90;;;;;;5092322;28;20216;-63
2023/07/29 05:03:54;;;;;;;8.57;4.70;;;18.40;99.90;;;;;;5082284;28;20205;-62
2023/07/29 05:06:22;;;;;;;4.85;4.45;;;18.40;99.90;;;;;;5084067;28;20305;-62
2023/07/29 05:08:51;;;;;;;9.48;4.75;;;18.40;99.90;;;;;;5089887;28;20249;-62
2023/07/29 05:11:19;;;;;;;5.32;4.65;;;18.40;99.90;;;;;;5078487;28;20292;-62
2023/07/29 05:13:47;;;;;;;5.97;4.43;;;18.50;99.90;;;;;;5088839;28;20232;-62
2023/07/29 05:16:15;;;;;;;8.32;4.90;;;18.50;99.90;;;;;;5084402;28;20667;-62
2023/07/29 05:18:43;;;;;;;8.40;4.40;;;18.60;99.90;;;;;;5081053;28;20228;-62
2023/07/29 05:21:14;;;;;;;7.18;4.35;;;18.60;99.90;;;;;;5075819;28;20197;-62
2023/07/29 05:23:42;;;;;;;9.27;4.63;;;18.60;99.90;;;;;;5089504;28;20208;-62
2023/07/29 05:26:11;;;;;;;7.38;4.72;;;18.60;99.90;;;;;;5083641;28;20663;-62
2023/07/29 05:28:39;;;;;;;4.90;4.32;;;18.60;99.90;;;;;;5081104;28;20232;-62
2023/07/29 05:31:07;;;;;;;5.43;4.80;;;18.70;99.90;;;;;;5091665;28;20204;-63
2023/07/29 05:33:36;;;;;;;8.65;5.35;;;18.70;99.90;;;;;;5078738;28;20668;-62
2023/07/29 05:36:05;;;;;;;5.40;4.88;;;18.70;99.90;;;;;;5086031;28;20225;-63
2023/07/29 05:38:32;;;;;;;9.05;5.32;;;18.80;99.90;;;;;;5086770;28;20227;-63
2023/07/29 05:41:00;;;;;;;7.63;5.05;;;18.80;99.90;;;;;;5078236;28;20271;-63
2023/07/29 05:43:30;;;;;;;9.85;5.72;;;18.80;99.90;;;;;;5060236;28;20699;-62
2023/07/29 05:45:57;;;;;;;5.55;5.05;;;18.90;99.90;;;;;;5084769;28;20264;-62
2023/07/29 05:48:25;;;;;;;13.32;5.82;;;18.90;99.90;;;;;;5084342;28;20254;-62
2023/07/29 05:50:53;;;;;;;10.20;5.45;;;18.90;99.90;;;;;;5078344;28;20200;-62
2023/07/29 05:53:21;;;;;;;6.18;5.47;;;18.90;99.90;;;;;;5089976;28;20204;-61
2023/07/29 05:55:49;;;;;;;4.85;4.47;;;18.90;99.90;;;;;;5080085;28;20754;-62
2023/07/29 05:58:17;;;;;;;8.63;5.82;;;18.90;99.90;;;;;;5094312;28;20679;-61
2023/07/29 06:00:46;;;;;;;6.40;5.68;;;19.00;99.90;;;;;;5093540;28;20255;-64
2023/07/29 06:03:14;;;;;;;5.60;4.97;;;19.00;99.90;;;;;;5077566;28;20212;-64
2023/07/29 06:05:42;;;;;;;5.35;4.97;;;19.00;99.90;;;;;;5088469;28;20232;-64
2023/07/29 06:08:10;;;;;;;4.97;4.40;;;19.00;99.90;;;;;;5071872;28;20690;-63
2023/07/29 06:10:39;;;;;;;5.40;5.00;;;19.00;99.90;;;;;;5068617;28;20247;-64
2023/07/29 06:13:07;;;;;;;5.10;4.70;;;19.00;99.90;;;;;;5067929;28;20707;-64
2023/07/29 06:15:35;;;;;;;6.78;5.18;;;19.00;99.90;;;;;;5066101;28;20750;-64
2023/07/29 06:18:05;;;;;;;5.90;4.82;;;19.00;99.90;;;;;;5085398;28;20324;-64
2023/07/29 06:20:33;;;;;;;4.15;3.85;;;19.00;99.90;;;;;;5073787;28;20262;-64
2023/07/29 06:23:01;;;;;;;7.15;4.25;;;19.00;99.90;;;;;;5089690;28;20228;-64
2023/07/29 06:25:29;;;;;;;7.95;4.47;;;19.00;99.90;;;;;;5060737;28;20266;-64
2023/07/29 06:27:58;;;;;;;4.97;4.28;;;19.00;99.90;;;;;;5086258;28;20281;-64
2023/07/29 06:30:26;;;;;;;4.78;4.28;;;19.00;99.90;;;;;;5085254;28;20231;-64
2023/07/29 06:32:54;;;;;;;4.45;4.15;;;19.00;99.90;;;;;;5078061;28;20208;-64
2023/07/29 06:35:24;;;;;;;4.75;4.32;;;19.10;99.90;;;;;;5087148;28;20217;-64
2023/07/29 06:37:52;;;;;;;10.25;5.05;;;19.10;99.90;;;;;;5086806;28;20264;-64
2023/07/29 06:40:20;;;;;;;5.35;4.80;;;19.10;99.90;;;;;;5083948;28;20623;-64
2023/07/29 06:42:48;;;;;;;8.35;4.68;;;19.20;99.90;;;;;;5078768;28;20279;-64
2023/07/29 06:45:16;;;;;;;8.60;5.05;;;19.20;99.90;;;;;;5089394;28;20742;-63
2023/07/29 06:47:44;;;;;;;8.25;4.82;;;19.20;99.90;;;;;;5074205;28;20290;-64
2023/07/29 06:50:12;;;;;;;7.18;5.40;;;19.20;99.90;;;;;;5069787;28;20201;-63
2023/07/29 06:52:41;;;;;;;5.68;4.78;;;19.10;99.90;;;;;;5086611;28;20204;-64
2023/07/29 06:55:09;;;;;;;6.20;5.57;;;19.10;99.90;;;;;;5070215;28;20261;-63
2023/07/29 06:57:37;;;;;;;6.85;5.75;;;19.10;99.90;;;;;;5068175;28;20236;-64
2023/07/29 07:00:09;;;;;;;6.03;5.35;;;19.10;99.90;;;;;;5066717;28;20207;-64
2023/07/29 07:02:37;;;;;;;8.35;5.68;;;19.00;99.90;;;;;;5067286;28;20220;-64
2023/07/29 07:05:05;;;;;;;6.93;5.88;;;19.10;99.90;;;;;;5086106;28;20286;-64
2023/07/29 07:07:33;;;;;;;6.25;5.45;;;19.10;99.90;;;;;;5076228;28;20279;-64
2023/07/29 07:10:02;;;;;;;5.95;5.45;;;19.10;99.90;;;;;;5084777;28;20283;-64
2023/07/29 07:12:30;;;;;;;8.68;5.93;;;19.10;99.90;;;;;;5084629;28;20204;-64
2023/07/29 07:14:58;;;;;;;7.20;5.45;;;19.10;99.90;;;;;;5076197;28;20252;-64
2023/07/29 07:17:26;;;;;;;8.25;5.65;;;19.10;99.90;;;;;;5089327;28;20228;-64
2023/07/29 07:19:54;;;;;;;5.85;4.82;;;19.10;99.90;;;;;;5071970;28;20232;-64
2023/07/29 07:22:22;;;;;;;6.18;5.15;;;19.10;99.90;;;;;;5072041;28;20668;-64
2023/07/29 07:24:50;;;;;;;7.90;5.65;;;19.10;99.90;;;;;;5086963;28;20661;-64
2023/07/29 07:27:19;;;;;;;8.40;4.97;;;19.10;99.90;;;;;;5075710;28;20641;-64
2023/07/29 07:29:47;;;;;;;10.80;5.57;;;19.20;99.90;;;;;;5086138;28;20699;-64
2023/07/29 07:32:15;;;;;;;11.10;6.15;;;19.20;99.90;;;;;;5080885;28;20236;-64
2023/07/29 07:34:42;;;;;;;6.95;4.95;;;19.20;99.90;;;;;;5077108;28;20251;-64
2023/07/29 07:37:10;;;;;;;6.00;5.03;;;19.20;99.90;;;;;;5088425;28;20283;-64
2023/07/29 07:39:38;;;;;;;5.82;4.53;;;19.30;99.90;;;;;;5076616;28;20327;-64
2023/07/29 07:42:07;;;;;;;6.78;4.50;;;19.30;99.90;;;;;;5082788;28;20208;-63
2023/07/29 07:44:36;;;;;;;5.68;4.38;;;19.30;99.90;;;;;;5084266;28;20283;-64
2023/07/29 07:47:04;;;;;;;6.78;3.88;;;19.30;99.90;;;;;;5075255;28;20298;-63
2023/07/29 07:49:32;;;;;;;7.95;4.07;;;19.30;99.90;;;;;;5088197;28;20280;-64
2023/07/29 07:52:00;;;;;;;9.65;4.65;;;19.30;99.90;;;;;;5079892;28;20231;-64
2023/07/29 07:54:28;;;;;;;6.05;4.35;;;19.40;99.90;;;;;;5086055;28;20254;-64
2023/07/29 07:56:55;;;;;;;4.63;3.97;;;19.40;99.90;;;;;;5072583;28;20715;-64
2023/07/29 07:59:23;;;;;;;5.30;3.65;;;19.50;99.90;;;;;;5074342;28;20259;-64
2023/07/29 08:01:53;;;;;;;6.65;3.78;;;19.50;99.90;;;;;;5085362;28;20653;-64
2023/07/29 08:04:21;;;;;;;4.07;3.25;;;19.60;99.90;;;;;;5082444;28;20200;-64
2023/07/29 08:06:49;;;;;;;5.30;3.20;;;19.70;99.90;;;;;;5076967;28;20235;-64
2023/07/29 08:09:16;;;;;;;3.25;2.95;;;19.60;99.90;;;;;;5087236;28;20200;-64
2023/07/29 08:11:44;;;;;;;4.95;2.08;;;19.70;99.90;;;;;;5075946;28;20232;-64
2023/07/29 08:14:12;;;;;;;3.13;1.60;;;19.80;99.90;;;;;;5081422;28;20237;-64
2023/07/29 08:16:40;;;;;;;2.05;1.40;;;19.90;99.90;;;;;;5083711;28;20660;-64
2023/07/29 08:19:09;;;;;;;4.03;1.10;;;20.10;99.90;;;;;;5073421;28;20240;-64
2023/07/29 08:21:37;;;;;;;0.75;0.75;;;20.30;99.90;;;;;;5075851;28;20294;-64
2023/07/29 08:24:06;;;;;;;2.70;0.80;;;20.60;99.90;;;;;;5081950;28;20259;-64
2023/07/29 08:26:34;;;;;;;1.40;0.70;;;20.70;99.90;;;;;;5084024;28;20273;-64
2023/07/29 08:29:02;;;;;;;3.05;0.85;;;20.90;99.90;;;;;;5074972;28;20284;-65
2023/07/29 08:31:33;;;;;;;0.60;0.60;;;20.80;99.90;;;;;;5051591;28;20206;-65
2023/07/29 08:34:01;;;;;;;0.73;0.73;;;20.80;99.90;;;;;;5059169;28;20232;-64
2023/07/29 08:36:30;;;;;;;0.80;0.80;;;20.80;99.90;;;;;;5083428;28;20302;-64
2023/07/29 08:38:58;;;;;;;3.13;0.70;;;20.80;99.90;;;;;;5075458;28;20230;-64
2023/07/29 08:41:27;;;;;;;0.82;0.60;;;20.70;99.90;;;;;;5088273;28;20203;-64
2023/07/29 08:44:00;;;;;;;0.70;0.70;;;20.80;99.90;;;;;;5078347;28;20204;-65
2023/07/29 08:46:28;;;;;;;1.55;0.60;;;21.00;99.90;;;;;;5098537;22;20230;-61
2023/07/29 08:48:56;;;;;;;1.33;0.75;;;21.00;99.90;;;;;;5068497;28;20200;-61
2023/07/29 08:51:24;;;;;;;0.93;0.70;;;21.20;99.90;;;;;;5068160;28;20230;-61
2023/07/29 08:53:53;;;;;;;0.80;0.80;;;21.50;99.90;;;;;;5070264;28;20218;-61
2023/07/29 08:56:21;;;;;;;4.45;0.70;;;21.70;99.90;;;;;;5070651;28;20301;-61
2023/07/29 08:58:49;;;;;;;3.10;0.80;;;22.00;99.90;;;;;;5085927;28;20283;-61
2023/07/29 09:01:17;;;;;;;0.63;0.60;;;22.10;99.90;;;;;;5073428;28;20232;-61
2023/07/29 09:03:45;;;;;;;1.10;0.80;;;22.20;99.90;;;;;;5085650;28;20623;-61
2023/07/29 09:06:13;;;;;;;1.20;0.60;;;22.20;99.90;;;;;;5080720;28;20224;-61
2023/07/29 09:08:41;;;;;;;0.55;0.55;;;22.20;99.90;;;;;;5077648;28;20675;-61
2023/07/29 09:11:10;;;;;;;5.18;0.70;;;22.10;99.90;;;;;;5088139;28;20232;-61
2023/07/29 09:13:38;;;;;;;3.50;0.65;;;22.10;99.90;;;;;;5076035;28;20234;-62
2023/07/29 09:16:06;;;;;;;1.25;0.55;;;22.20;99.90;;;;;;5082690;28;20228;-61
2023/07/29 09:18:34;;;;;;;1.02;0.70;;;22.50;99.90;;;;;;5074667;28;20201;-61
2023/07/29 09:21:01;;;;;;;1.52;0.80;;;22.80;99.90;;;;;;5087956;28;20308;-62
2023/07/29 09:23:29;;;;;;;0.57;0.55;;;22.90;99.90;;;;;;5058298;28;20279;-61
2023/07/29 09:26:02;;;;;;;0.60;0.52;;;23.20;99.90;;;;;;5083333;28;20244;-62
2023/07/29 09:28:34;;;;;;;1.52;0.70;;;23.30;99.90;;;;;;5082865;28;20208;-62
2023/07/29 09:31:02;;;;;;;4.10;0.70;;;23.30;99.90;;;;;;5074548;28;20197;-61
2023/07/29 09:33:31;;;;;;;0.88;0.82;;;23.30;99.90;;;;;;5074728;28;20662;-62
2023/07/29 09:35:59;;;;;;;2.65;0.95;;;23.10;99.90;;;;;;5084168;28;20270;-62
2023/07/29 09:38:27;;;;;;;1.00;0.88;;;22.80;99.90;;;;;;5086046;28;20203;-61
2023/07/29 09:40:56;;;;;;;4.13;0.63;;;22.60;99.90;;;;;;5078942;28;20248;-61
2023/07/29 09:43:26;;;;;;;2.92;0.70;;;22.50;99.90;;;;;;5091266;28;20296;-61
2023/07/29 09:45:55;;;;;;;0.88;0.88;;;22.40;99.90;;;;;;5081317;28;20285;-61
2023/07/29 09:48:23;;;;;;;0.80;0.80;;;22.30;99.90;;;;;;5083518;28;20201;-61
2023/07/29 09:50:51;;;;;;;1.58;0.70;;;22.30;99.90;;;;;;5089498;28;20207;-61
2023/07/29 09:53:19;;;;;;;1.02;0.60;;;22.30;99.90;;;;;;5077418;28;20263;-61
2023/07/29 09:55:47;;;;;;;0.85;0.85;;;22.30;99.90;;;;;;5088336;28;20328;-61
2023/07/29 09:58:15;;;;;;;1.45;0.82;;;22.30;99.90;;;;;;5084275;28;20249;-61
2023/07/29 10:00:43;;;;;;;3.75;1.25;;;22.50;99.90;;;;;;5080539;28;20274;-61
2023/07/29 10:03:12;;;;;;;2.10;0.80;;;22.60;99.90;;;;;;5090952;28;20748;-61
2023/07/29 10:05:40;;;;;;;1.42;0.80;;;22.80;99.90;;;;;;5079002;28;20220;-62
2023/07/29 10:08:08;;;;;;;2.42;0.70;;;22.90;99.90;;;;;;5085094;28;20638;-61
2023/07/29 10:10:36;;;;;;;2.72;0.85;;;23.00;99.90;;;;;;5087121;28;20223;-62
2023/07/29 10:13:04;;;;;;;0.88;0.88;;;23.10;99.90;;;;;;5077374;28;20228;-62
2023/07/29 10:15:32;;;;;;;2.53;0.90;;;23.30;99.90;;;;;;5081167;28;20233;-62
2023/07/29 10:18:00;;;;;;;2.75;0.77;;;23.40;99.90;;;;;;5072354;28;20239;-61
2023/07/29 10:20:30;;;;;;;2.47;0.80;;;23.80;99.90;;;;;;5072808;28;20247;-62
2023/07/29 10:22:59;;;;;;;0.70;0.70;;;24.10;99.90;;;;;;5073634;28;20200;-63
2023/07/29 10:25:31;;;;;;;2.70;1.08;;;24.20;99.90;;;;;;5075724;28;20303;-62
2023/07/29 10:28:02;;;;;;;0.90;0.70;;;24.20;99.90;;;;;;5084657;28;20595;-63
2023/07/29 10:30:30;;;;;;;1.45;0.88;;;24.10;99.90;;;;;;5085683;28;20204;-64
2023/07/29 10:32:59;;;;;;;0.73;0.73;;;24.00;99.90;;;;;;5077313;28;20232;-63
2023/07/29 10:35:27;;;;;;;0.98;0.82;;;23.70;99.90;;;;;;5090087;28;20216;-62
2023/07/29 10:37:56;;;;;;;0.85;0.85;;;23.40;99.90;;;;;;5081046;28;20200;-62
2023/07/29 10:40:24;;;;;;;1.40;1.08;;;23.20;99.90;;;;;;5082745;28;20757;-62
2023/07/29 10:43:02;;;;;;;1.23;0.70;;;23.10;99.90;;;;;;5087914;28;20232;-63
2023/07/29 10:45:37;;;;;;;0.90;0.90;;;23.20;99.90;;;;;;5061059;28;20706;-63
2023/07/29 10:48:08;;;;;;;1.05;0.68;;;23.40;99.90;;;;;;5085086;28;20232;-63
2023/07/29 10:50:36;;;;;;;3.90;0.90;;;23.60;99.90;;;;;;5086987;28;20196;-62
2023/07/29 10:53:05;;;;;;;0.77;0.77;;;23.90;99.90;;;;;;5077323;28;20200;-62
2023/07/29 10:55:34;;;;;;;2.05;1.00;;;24.40;99.90;;;;;;5089381;28;20642;-62
2023/07/29 10:58:06;;;;;;;0.90;0.82;;;25.20;99.90;;;;;;5081629;28;20200;-63
2023/07/29 11:00:34;;;;;;;1.50;0.90;;;25.20;99.90;;;;;;5081514;28;20259;-63
2023/07/29 11:03:03;;;;;;;1.95;0.93;;;25.00;99.90;;;;;;5090298;28;20667;-63
2023/07/29 11:05:50;;;;;;;1.33;0.90;;;24.60;99.90;;;;;;5061467;28;20249;-63
2023/07/29 11:08:21;;;;;;;3.00;0.80;;;24.30;99.90;;;;;;5083158;28;20204;-62
2023/07/29 11:10:59;;;;;;;1.58;1.00;;;24.00;99.90;;;;;;5088885;28;20228;-63
2023/07/29 11:13:28;;;;;;;0.70;0.70;;;23.80;99.90;;;;;;5077112;28;20195;-63
2023/07/29 11:15:58;;;;;;;1.05;1.05;;;23.70;99.90;;;;;;5085533;28;20224;-63
2023/07/29 11:18:28;;;;;;;1.65;0.90;;;23.70;99.90;;;;;;5074909;28;20204;-62
2023/07/29 11:20:56;;;;;;;1.20;1.10;;;23.70;99.90;;;;;;5074945;28;20224;-62
2023/07/29 11:23:30;;;;;;;1.52;1.42;;;23.70;99.90;;;;;;5075826;28;20303;-61
2023/07/29 11:25:58;;;;;;;1.20;1.13;;;23.80;99.90;;;;;;5085258;28;20699;-62
2023/07/29 11:28:27;;;;;;;1.27;1.10;;;24.10;99.90;;;;;;5084387;28;20204;-62
2023/07/29 11:30:55;;;;;;;0.90;0.90;;;24.50;99.90;;;;;;5078053;28;20239;-63
2023/07/29 11:33:25;;;;;;;1.10;1.05;;;24.60;99.90;;;;;;5088928;28;20212;-62
2023/07/29 11:35:53;;;;;;;3.75;1.02;;;24.70;99.90;;;;;;5079620;28;20696;-62
2023/07/29 11:38:22;;;;;;;2.05;0.88;;;24.90;99.90;;;;;;5075358;28;20265;-62
2023/07/29 11:40:58;;;;;;;2.08;0.85;;;25.10;99.90;;;;;;5077934;28;20304;-62
2023/07/29 11:43:27;;;;;;;1.67;1.00;;;25.70;99.90;;;;;;5089218;28;20676;-63
2023/07/29 11:45:55;;;;;;;1.30;1.20;;;25.80;99.90;;;;;;5079362;28;20308;-63
2023/07/29 11:48:29;;;;;;;2.65;0.80;;;25.90;99.90;;;;;;5081520;28;20292;-63
2023/07/29 11:50:57;;;;;;;0.82;0.82;;;25.70;99.90;;;;;;5088451;28;20196;-63
2023/07/29 11:53:28;;;;;;;2.53;1.00;;;25.40;99.90;;;;;;5075956;28;20200;-63
2023/07/29 11:55:57;;;;;;;1.10;1.10;;;25.20;99.90;;;;;;5084598;28;20265;-62
2023/07/29 11:58:25;;;;;;;12.02;1.55;;;24.90;99.90;;;;;;5084027;28;20200;-63
2023/07/29 12:00:53;;;;;;;1.67;1.50;;;24.90;99.90;;;;;;5078532;28;20228;-62
2023/07/29 12:03:21;;;;;;;2.15;2.05;;;24.80;99.90;;;;;;5089502;28;20571;-62
2023/07/29 12:05:50;;;;;;;1.80;1.48;;;24.70;99.90;;;;;;5079156;28;20220;-62
2023/07/29 12:08:18;;;;;;;2.78;1.38;;;24.90;99.90;;;;;;5082684;28;20200;-63
2023/07/29 12:10:45;;;;;;;1.20;1.20;;;25.60;99.90;;;;;;5087468;28;20221;-63
2023/07/29 12:13:15;;;;;;;1.23;1.23;;;26.50;99.90;;;;;;5076635;28;20204;-63
2023/07/29 12:15:43;;;;;;;2.25;0.90;;;27.00;99.90;;;;;;5087771;28;20224;-63
2023/07/29 12:18:12;;;;;;;4.75;1.25;;;27.70;99.90;;;;;;5070953;28;20288;-63
2023/07/29 12:20:40;;;;;;;1.75;1.42;;;28.10;99.90;;;;;;5066552;28;20209;-63
2023/07/29 12:23:08;;;;;;;1.35;0.90;;;28.60;99.90;;;;;;5073639;28;20208;-64
2023/07/29 12:25:36;;;;;;;1.20;0.73;;;28.90;99.90;;;;;;5073430;28;20221;-64
2023/07/29 12:28:06;;;;;;;1.13;1.13;;;29.20;99.90;;;;;;5081769;28;20273;-63
2023/07/29 12:30:41;;;;;;;0.98;0.98;;;29.50;99.90;;;;;;5080362;28;20207;-62
2023/07/29 12:33:09;;;;;;;0.90;0.85;;;29.50;99.90;;;;;;5088649;28;20207;-62
2023/07/29 12:35:38;;;;;;;1.05;1.00;;;29.80;99.90;;;;;;5076576;28;20285;-62
2023/07/29 12:38:06;;;;;;;1.02;1.02;;;29.60;99.90;;;;;;5083264;28;20806;-62
2023/07/29 12:40:38;;;;;;;0.98;0.98;;;29.60;99.90;;;;;;5084561;28;20196;-62
2023/07/29 12:43:06;;;;;;;3.05;1.10;;;29.60;99.90;;;;;;5075102;28;20307;-63
2023/07/29 12:45:39;;;;;;;2.53;1.13;;;29.90;99.90;;;;;;5087164;28;20232;-63
2023/07/29 12:48:08;;;;;;;0.90;0.90;;;30.30;99.90;;;;;;5080514;28;20211;-63
2023/07/29 12:50:36;;;;;;;1.38;1.25;;;30.70;99.90;;;;;;5078829;28;20212;-63